createdAt,value
2023-07-31T00:00:09.613Z,100047.88
2023-07-31T00:02:37.625Z,100049.11
2023-07-31T00:05:05.352Z,100043.05
2023-07-31T00:07:32.904Z,100038.44
2023-07-31T00:09:59.980Z,100043.55
2023-07-31T00:12:26.899Z,100045.91
2023-07-31T00:14:53.885Z,100045.75
2023-07-31T00:17:20.929Z,100055.44
2023-07-31T00:19:49.992Z,100049.75
2023-07-31T00:22:17.148Z,100052.27
2023-07-31T00:24:44.189Z,100052.92
2023-07-31T00:27:11.140Z,100049.51
2023-07-31T00:29:38.175Z,100053.11
2023-07-31T00:32:06.164Z,100053.98
2023-07-31T00:34:33.088Z,100051.45
2023-07-31T00:37:00.168Z,100051.09
2023-07-31T00:39:27.086Z,100052.21
2023-07-31T00:41:54.027Z,100048.85
2023-07-31T00:44:21.485Z,100047.27
2023-07-31T00:46:49.040Z,100046.25
2023-07-31T00:49:16.619Z,100041.33
2023-07-31T00:51:44.571Z,100042.96
2023-07-31T00:54:12.065Z,100044.56
2023-07-31T00:56:39.805Z,100044.95
2023-07-31T00:59:07.085Z,100046.54
2023-07-31T01:01:34.213Z,100046.96
2023-07-31T01:04:01.355Z,100045.85
2023-07-31T01:06:37.776Z,100049.23
2023-07-31T01:09:12.772Z,100046.05
2023-07-31T01:11:51.163Z,100052.34
2023-07-31T01:14:18.108Z,100054.63
2023-07-31T01:16:45.090Z,100059.14
2023-07-31T01:19:12.509Z,100064.66
2023-07-31T01:22:04.575Z,100066.56
2023-07-31T01:24:43.673Z,100065.83
2023-07-31T01:27:13.127Z,100071.98
2023-07-31T01:29:44.081Z,100072.05
2023-07-31T01:32:11.063Z,100077.00
2023-07-31T01:34:38.133Z,100074.38
2023-07-31T01:37:05.778Z,100070.52
2023-07-31T01:39:32.609Z,100069.18
2023-07-31T01:41:59.573Z,100069.56
2023-07-31T01:44:26.513Z,100068.27
2023-07-31T01:46:53.630Z,100065.83
2023-07-31T01:49:21.015Z,100069.07
2023-07-31T01:51:48.694Z,100067.45
2023-07-31T01:54:15.947Z,100067.98
2023-07-31T01:56:43.196Z,100061.14
2023-07-31T01:59:10.739Z,100063.42
2023-07-31T02:01:37.733Z,100062.35
2023-07-31T02:04:05.653Z,100061.89
2023-07-31T02:06:32.800Z,100056.77
2023-07-31T02:08:59.852Z,100058.98
2023-07-31T02:11:26.840Z,100057.35
2023-07-31T02:13:53.752Z,100062.31
2023-07-31T02:16:20.769Z,100063.25
2023-07-31T02:18:48.066Z,100064.08
2023-07-31T02:21:14.991Z,100070.88
2023-07-31T02:23:42.274Z,100069.68
2023-07-31T02:26:09.181Z,100059.63
2023-07-31T02:28:36.353Z,100057.05
2023-07-31T02:31:03.586Z,100051.92
2023-07-31T02:33:30.539Z,100047.80
2023-07-31T02:35:57.484Z,100048.13
2023-07-31T02:38:24.494Z,100043.88
2023-07-31T02:40:51.597Z,100039.47
2023-07-31T02:43:18.555Z,100045.70
2023-07-31T02:45:45.575Z,100046.55
2023-07-31T02:48:12.710Z,100047.86
2023-07-31T02:50:39.798Z,100045.80
2023-07-31T02:53:06.804Z,100040.52
2023-07-31T02:55:33.951Z,100039.23
2023-07-31T02:58:00.898Z,100037.45
2023-07-31T03:00:28.251Z,100033.85
2023-07-31T03:02:55.229Z,100034.62
2023-07-31T03:05:22.764Z,100036.83
2023-07-31T03:07:49.721Z,100028.59
2023-07-31T03:10:16.855Z,100027.13
2023-07-31T03:12:48.001Z,100026.86
2023-07-31T03:15:15.041Z,100027.65
2023-07-31T03:17:42.107Z,100027.34
2023-07-31T03:20:09.757Z,100029.08
2023-07-31T03:22:37.207Z,100025.98
2023-07-31T03:25:05.813Z,100025.21
2023-07-31T03:27:32.842Z,100026.95
2023-07-31T03:30:00.397Z,100019.40
2023-07-31T03:32:27.361Z,100023.80
2023-07-31T03:34:54.636Z,100022.17
2023-07-31T03:37:21.647Z,100025.16
2023-07-31T03:39:48.599Z,100023.33
2023-07-31T03:42:15.649Z,100023.96
2023-07-31T03:44:42.586Z,100025.70
2023-07-31T03:47:10.219Z,100026.33
2023-07-31T03:49:38.115Z,100031.52
2023-07-31T03:52:05.499Z,100030.77
2023-07-31T03:54:32.410Z,100033.95
2023-07-31T03:57:00.080Z,100034.81
2023-07-31T03:59:27.026Z,100033.80
2023-07-31T04:01:54.122Z,100033.86
2023-07-31T04:04:21.126Z,100031.45
2023-07-31T04:06:48.062Z,100030.44
2023-07-31T04:09:15.023Z,100035.38
2023-07-31T04:11:42.054Z,100033.62
2023-07-31T04:14:09.335Z,100036.73
2023-07-31T04:16:36.392Z,100040.21
2023-07-31T04:19:04.643Z,100036.52
2023-07-31T04:21:31.580Z,100039.98
2023-07-31T04:23:59.238Z,100039.75
2023-07-31T04:26:26.297Z,100040.91
2023-07-31T04:28:53.336Z,100043.00
2023-07-31T04:31:20.340Z,100041.25
2023-07-31T04:33:47.427Z,100045.46
2023-07-31T04:36:14.400Z,100040.20
2023-07-31T04:38:41.933Z,100037.94
2023-07-31T04:41:08.988Z,100041.95
2023-07-31T04:43:35.974Z,100038.98
2023-07-31T04:46:03.101Z,100040.50
2023-07-31T04:48:30.337Z,100042.73
2023-07-31T04:50:57.173Z,100043.84
2023-07-31T04:53:24.130Z,100045.29
2023-07-31T04:55:51.166Z,100047.50
2023-07-31T04:58:18.233Z,100044.81
2023-07-31T05:00:45.579Z,100046.86
2023-07-31T05:03:12.603Z,100048.85
2023-07-31T05:05:40.296Z,100049.65
2023-07-31T05:08:07.217Z,100051.52
2023-07-31T05:10:34.159Z,100050.70
2023-07-31T05:13:01.105Z,100051.23
2023-07-31T05:15:28.681Z,100047.85
2023-07-31T05:17:55.880Z,100048.39
2023-07-31T05:20:23.100Z,100047.66
2023-07-31T05:22:51.445Z,100046.88
2023-07-31T05:25:18.426Z,100043.82
2023-07-31T05:27:45.335Z,100042.70
2023-07-31T05:30:12.386Z,100039.89
2023-07-31T05:32:39.563Z,100043.25
2023-07-31T05:35:07.093Z,100045.31
2023-07-31T05:37:34.046Z,100043.33
2023-07-31T05:40:01.087Z,100042.52
2023-07-31T05:42:28.058Z,100038.27
2023-07-31T05:44:55.077Z,100042.21
2023-07-31T05:47:22.061Z,100038.84
2023-07-31T05:49:50.305Z,100044.02
2023-07-31T05:52:17.656Z,100040.50
2023-07-31T05:54:44.803Z,100041.69
2023-07-31T05:57:11.953Z,100044.71
2023-07-31T05:59:39.211Z,100038.83
2023-07-31T06:02:06.665Z,100038.23
2023-07-31T06:04:33.609Z,100037.85
2023-07-31T06:07:01.271Z,100039.24
2023-07-31T06:09:28.361Z,100041.83
2023-07-31T06:11:55.262Z,100038.76
2023-07-31T06:14:22.257Z,100035.05
2023-07-31T06:16:49.256Z,100036.15
2023-07-31T06:19:16.313Z,100037.90
2023-07-31T06:21:44.687Z,100034.77
2023-07-31T06:24:12.964Z,100034.50
2023-07-31T06:26:40.856Z,100030.88
2023-07-31T06:29:08.186Z,100034.10
2023-07-31T06:31:35.353Z,100038.41
2023-07-31T06:34:02.375Z,100046.36
2023-07-31T06:36:29.630Z,100055.73
2023-07-31T06:38:56.679Z,100064.44
2023-07-31T06:41:23.826Z,100059.02
2023-07-31T06:43:50.782Z,100053.63
2023-07-31T06:46:17.866Z,100056.66
2023-07-31T06:48:44.988Z,100056.86
2023-07-31T06:51:12.012Z,100055.42
2023-07-31T06:53:39.506Z,100057.83
2023-07-31T06:56:06.420Z,100050.84
2023-07-31T06:58:33.471Z,100052.45
2023-07-31T07:01:00.891Z,100055.79
2023-07-31T07:03:27.969Z,100055.47
2023-07-31T07:05:54.938Z,100059.60
2023-07-31T07:08:22.081Z,100062.33
2023-07-31T07:10:49.131Z,100059.58
2023-07-31T07:13:16.366Z,100058.85
2023-07-31T07:15:43.335Z,100059.59
2023-07-31T07:18:11.424Z,100064.17
2023-07-31T07:20:38.541Z,100063.86
2023-07-31T07:23:05.681Z,100068.83
2023-07-31T07:25:32.934Z,100069.27
2023-07-31T07:28:00.149Z,100066.23
2023-07-31T07:30:27.241Z,100063.71
2023-07-31T07:32:54.216Z,100062.77
2023-07-31T07:35:21.945Z,100061.45
2023-07-31T07:37:53.270Z,100064.49
2023-07-31T07:40:21.159Z,100060.77
2023-07-31T07:42:48.208Z,100062.10
2023-07-31T07:45:15.276Z,100058.80
2023-07-31T07:47:43.035Z,100057.29
2023-07-31T07:50:10.403Z,100054.05
2023-07-31T07:52:37.319Z,100055.77
2023-07-31T07:55:04.919Z,100056.53
2023-07-31T07:57:32.028Z,100057.67
2023-07-31T07:59:58.984Z,100060.42
2023-07-31T08:02:25.957Z,100061.52
2023-07-31T08:04:53.075Z,100055.02
2023-07-31T08:07:20.236Z,100054.78
2023-07-31T08:09:47.167Z,100050.77
2023-07-31T08:12:14.128Z,100051.86
2023-07-31T08:14:41.292Z,100052.84
2023-07-31T08:17:08.364Z,100051.38
2023-07-31T08:19:36.289Z,100051.52
2023-07-31T08:22:03.835Z,100050.55
2023-07-31T08:24:30.787Z,100050.11
2023-07-31T08:26:58.135Z,100048.27
2023-07-31T08:29:26.126Z,100047.11
2023-07-31T08:31:53.156Z,100046.03
2023-07-31T08:34:20.115Z,100040.98
2023-07-31T08:36:47.043Z,100045.58
2023-07-31T08:39:14.226Z,100048.11
2023-07-31T08:41:41.144Z,100046.98
2023-07-31T08:44:08.647Z,100038.45
2023-07-31T08:46:35.679Z,100038.77
2023-07-31T08:49:05.354Z,100036.28
2023-07-31T08:51:34.987Z,100041.13
2023-07-31T08:54:02.218Z,100044.29
2023-07-31T08:56:29.498Z,100047.28
2023-07-31T08:58:56.614Z,100047.34
2023-07-31T09:01:23.700Z,100044.96
2023-07-31T09:03:50.703Z,100045.80
2023-07-31T09:06:18.878Z,100045.34
2023-07-31T09:08:46.152Z,100043.99
2023-07-31T09:11:14.509Z,100044.33
2023-07-31T09:13:41.485Z,100040.83
2023-07-31T09:16:09.808Z,100036.32
2023-07-31T09:18:59.432Z,100043.44
2023-07-31T09:21:28.232Z,100040.39
2023-07-31T09:23:55.484Z,100046.61
2023-07-31T09:26:35.812Z,100044.71
2023-07-31T09:29:05.752Z,100043.98
2023-07-31T09:31:43.432Z,100041.69
2023-07-31T09:34:12.485Z,100043.60
2023-07-31T09:36:43.591Z,100041.66
2023-07-31T09:39:11.946Z,100040.80
2023-07-31T09:41:44.778Z,100043.53
2023-07-31T09:44:12.101Z,100041.56
2023-07-31T09:46:39.832Z,100034.97
2023-07-31T09:49:10.511Z,100039.18
2023-07-31T09:51:41.718Z,100037.08
2023-07-31T09:54:13.172Z,100035.08
2023-07-31T09:56:45.816Z,100035.59
2023-07-31T09:59:14.024Z,100033.81
2023-07-31T10:01:42.352Z,100030.36
2023-07-31T10:04:10.679Z,100025.27
2023-07-31T10:06:38.732Z,100027.59
2023-07-31T10:09:11.594Z,100024.25
2023-07-31T10:11:42.288Z,100022.38
2023-07-31T10:14:09.213Z,100023.02
2023-07-31T10:16:39.141Z,100021.66
2023-07-31T10:19:06.582Z,100018.70
2023-07-31T10:21:35.883Z,100018.58
2023-07-31T10:24:04.263Z,100015.91
2023-07-31T10:26:34.694Z,100016.31
2023-07-31T10:29:02.168Z,100015.45
2023-07-31T10:31:29.414Z,100019.48
2023-07-31T10:33:57.976Z,100015.97
2023-07-31T10:36:24.937Z,100019.21
2023-07-31T10:38:52.074Z,100015.80
2023-07-31T10:41:19.224Z,100011.11
2023-07-31T10:43:47.919Z,100010.17
2023-07-31T10:46:15.383Z,100007.73
2023-07-31T10:48:42.435Z,100004.24
2023-07-31T10:51:12.700Z,99999.50
2023-07-31T10:53:41.336Z,99997.01
2023-07-31T10:56:09.911Z,99996.23
2023-07-31T10:58:37.685Z,99997.29
2023-07-31T11:01:05.772Z,99994.81
2023-07-31T11:03:45.480Z,99996.86
2023-07-31T11:06:16.205Z,99990.27
2023-07-31T11:08:47.648Z,99990.11
2023-07-31T11:11:16.462Z,99984.88
2023-07-31T11:13:50.384Z,99984.19
2023-07-31T11:16:18.390Z,99985.98
2023-07-31T11:18:46.312Z,99979.88
2023-07-31T11:21:17.708Z,99981.20
2023-07-31T11:23:50.306Z,99982.16
2023-07-31T11:26:17.898Z,99978.76
2023-07-31T11:28:50.435Z,99977.89
2023-07-31T11:31:18.559Z,99979.13
2023-07-31T11:33:45.643Z,99979.35
2023-07-31T11:36:19.771Z,99981.21
2023-07-31T11:38:46.855Z,99978.58
2023-07-31T11:41:15.105Z,99977.15
2023-07-31T11:43:42.495Z,99977.34
2023-07-31T11:46:10.295Z,99974.23
2023-07-31T11:48:37.934Z,99973.36
2023-07-31T11:51:06.513Z,99971.31
2023-07-31T11:53:43.727Z,99971.04
2023-07-31T11:56:12.679Z,99966.71
2023-07-31T11:58:39.932Z,99969.23
2023-07-31T12:01:06.883Z,99975.22
2023-07-31T12:03:34.162Z,99969.55
2023-07-31T12:06:02.965Z,99971.14
2023-07-31T12:08:30.285Z,99967.92
2023-07-31T12:11:05.823Z,99970.17
2023-07-31T12:13:33.498Z,99971.95
2023-07-31T12:16:02.293Z,99969.39
2023-07-31T12:18:35.148Z,99964.25
2023-07-31T12:21:03.442Z,99966.14
2023-07-31T12:23:32.731Z,99968.87
2023-07-31T12:26:02.639Z,99970.15
2023-07-31T12:28:29.947Z,99969.04
2023-07-31T12:31:00.940Z,99964.71
2023-07-31T12:33:32.726Z,99965.98
2023-07-31T12:36:03.836Z,99964.48
2023-07-31T12:38:31.200Z,99964.88
2023-07-31T12:40:58.243Z,99967.05
2023-07-31T12:43:25.183Z,99967.96
2023-07-31T12:45:52.583Z,99968.48
2023-07-31T12:48:19.994Z,99969.21
2023-07-31T12:50:47.077Z,99965.58
2023-07-31T12:53:13.985Z,99967.11
2023-07-31T12:55:41.081Z,99965.03
2023-07-31T12:58:08.085Z,99965.08
2023-07-31T13:00:35.848Z,99961.13
2023-07-31T13:03:03.256Z,99961.25
2023-07-31T13:05:30.366Z,99958.46
2023-07-31T13:07:57.519Z,99955.38
2023-07-31T13:10:25.019Z,99955.64
2023-07-31T13:12:52.342Z,99956.21
2023-07-31T13:15:19.509Z,99954.08
2023-07-31T13:17:47.213Z,99951.99
2023-07-31T13:20:14.176Z,99950.96
2023-07-31T13:22:42.559Z,99945.73
2023-07-31T13:25:11.461Z,99945.23
2023-07-31T13:27:38.908Z,99946.02
2023-07-31T13:30:07.002Z,99949.09
2023-07-31T13:32:34.171Z,99943.65
2023-07-31T13:35:01.293Z,99942.64
2023-07-31T13:37:28.418Z,99941.23
2023-07-31T13:39:55.574Z,99942.27
2023-07-31T13:42:23.247Z,99941.58
2023-07-31T13:44:50.584Z,99944.86
2023-07-31T13:47:17.649Z,99942.10
2023-07-31T13:49:45.295Z,99942.73
2023-07-31T13:52:12.476Z,99941.63
2023-07-31T13:54:39.494Z,99937.44
2023-07-31T13:57:07.266Z,99935.41
2023-07-31T13:59:34.415Z,99931.03
2023-07-31T14:02:02.985Z,99934.83
2023-07-31T14:04:30.150Z,99938.05
2023-07-31T14:06:57.245Z,99936.84
2023-07-31T14:09:24.396Z,99932.54
2023-07-31T14:11:51.606Z,99931.85
2023-07-31T14:14:20.216Z,99933.20
2023-07-31T14:16:47.407Z,99930.61
2023-07-31T14:19:15.214Z,99927.30
2023-07-31T14:21:42.347Z,99932.89
2023-07-31T14:24:09.395Z,99930.61
2023-07-31T14:26:36.349Z,99927.51
2023-07-31T14:29:03.592Z,99923.80
2023-07-31T14:31:30.955Z,99921.55
2023-07-31T14:33:59.219Z,99920.34
2023-07-31T14:36:26.262Z,99923.30
2023-07-31T14:38:53.621Z,99920.84
2023-07-31T14:41:21.281Z,99917.48
2023-07-31T14:43:48.650Z,99920.50
2023-07-31T14:46:15.725Z,99917.69
2023-07-31T14:48:42.956Z,99917.94
2023-07-31T14:51:09.987Z,99922.63
2023-07-31T14:53:37.673Z,99918.39
2023-07-31T14:56:04.997Z,99919.00
2023-07-31T14:58:32.095Z,99915.72
2023-07-31T15:00:59.209Z,99919.98
2023-07-31T15:03:27.171Z,99918.89
2023-07-31T15:05:54.323Z,99919.45
2023-07-31T15:08:21.373Z,99918.85
2023-07-31T15:10:48.323Z,99919.46
2023-07-31T15:13:15.364Z,99920.35
2023-07-31T15:15:42.434Z,99917.09
2023-07-31T15:18:09.579Z,99918.23
2023-07-31T15:20:36.742Z,99918.84
2023-07-31T15:23:03.962Z,99918.57
2023-07-31T15:25:30.911Z,99916.13
2023-07-31T15:27:58.080Z,99914.80
2023-07-31T15:30:25.098Z,99913.73
2023-07-31T15:32:53.320Z,99916.38
2023-07-31T15:35:22.500Z,99909.02
2023-07-31T15:37:49.824Z,99908.17
2023-07-31T15:40:17.489Z,99905.89
2023-07-31T15:42:44.431Z,99903.24
2023-07-31T15:45:12.092Z,99905.84
2023-07-31T15:47:39.774Z,99903.71
2023-07-31T15:50:07.456Z,99906.11
2023-07-31T15:52:34.770Z,99904.63
2023-07-31T15:55:01.752Z,99903.41
2023-07-31T15:57:31.064Z,99908.38
2023-07-31T15:59:58.384Z,99911.39
2023-07-31T16:02:25.448Z,99910.61
2023-07-31T16:04:52.480Z,99909.70
2023-07-31T16:07:20.957Z,99910.80
2023-07-31T16:09:47.998Z,99912.98
2023-07-31T16:12:15.178Z,99909.17
2023-07-31T16:14:42.398Z,99907.71
2023-07-31T16:17:09.472Z,99905.16
2023-07-31T16:19:36.636Z,99905.70
2023-07-31T16:22:04.278Z,99907.30
2023-07-31T16:24:31.510Z,99905.31
2023-07-31T16:26:58.656Z,99907.36
2023-07-31T16:29:25.717Z,99906.85
2023-07-31T16:31:57.993Z,99910.70
2023-07-31T16:34:27.008Z,99916.58
2023-07-31T16:36:57.167Z,99917.94
2023-07-31T16:39:24.953Z,99920.63
2023-07-31T16:41:52.436Z,99919.54
2023-07-31T16:44:19.456Z,99921.48
2023-07-31T16:46:46.527Z,99920.17
2023-07-31T16:49:13.566Z,99923.60
2023-07-31T16:51:41.024Z,99924.55
2023-07-31T16:54:08.273Z,99924.89
2023-07-31T16:56:48.556Z,99927.15
2023-07-31T16:59:20.491Z,99931.63
2023-07-31T17:01:48.067Z,99934.90
2023-07-31T17:04:15.701Z,99932.98
2023-07-31T17:06:43.591Z,99938.48
2023-07-31T17:09:10.930Z,99939.70
2023-07-31T17:11:38.812Z,99943.83
2023-07-31T17:14:09.124Z,99948.63
2023-07-31T17:16:36.478Z,99952.08
2023-07-31T17:19:05.515Z,99951.98
2023-07-31T17:21:32.826Z,99956.98
2023-07-31T17:24:01.236Z,99959.83
2023-07-31T17:26:29.174Z,99962.61
2023-07-31T17:28:56.318Z,99964.61
2023-07-31T17:31:23.854Z,99968.02
2023-07-31T17:33:51.130Z,99968.52
2023-07-31T17:36:18.187Z,99967.97
2023-07-31T17:38:45.538Z,99974.13
2023-07-31T17:41:12.620Z,99979.35
2023-07-31T17:43:39.730Z,99978.91
2023-07-31T17:46:07.505Z,99989.19
2023-07-31T17:48:34.644Z,100009.14
2023-07-31T17:51:02.004Z,100015.71
2023-07-31T17:53:29.163Z,100020.77
2023-07-31T17:55:56.200Z,100027.17
2023-07-31T17:58:23.256Z,100028.89
2023-07-31T18:00:51.652Z,100032.25
2023-07-31T18:03:18.971Z,100035.04
2023-07-31T18:05:46.576Z,100040.00
2023-07-31T18:08:13.822Z,100040.33
2023-07-31T18:10:45.557Z,100042.74
2023-07-31T18:13:13.525Z,100045.27
2023-07-31T18:15:45.822Z,100051.71
2023-07-31T18:18:13.503Z,100049.38
2023-07-31T18:20:41.216Z,100053.80
2023-07-31T18:23:08.319Z,100051.94
2023-07-31T18:25:35.312Z,100053.42
2023-07-31T18:28:03.295Z,100059.54
2023-07-31T18:30:30.571Z,100059.21
2023-07-31T18:32:58.071Z,100061.61
2023-07-31T18:35:25.665Z,100061.77
2023-07-31T18:37:52.740Z,100060.91
2023-07-31T18:40:20.056Z,100062.27
2023-07-31T18:42:47.508Z,100062.83
2023-07-31T18:45:14.668Z,100065.29
2023-07-31T18:47:41.885Z,100057.91
2023-07-31T18:50:10.003Z,100060.14
2023-07-31T18:52:37.884Z,100061.31
2023-07-31T18:55:05.723Z,100058.01
2023-07-31T18:57:32.879Z,100057.84
2023-07-31T19:00:01.051Z,100054.11
2023-07-31T19:02:28.221Z,100057.91
2023-07-31T19:04:55.970Z,100055.92
2023-07-31T19:07:23.617Z,100060.46
2023-07-31T19:09:59.973Z,100058.75
2023-07-31T19:12:32.362Z,100061.81
2023-07-31T19:15:00.016Z,100055.37
2023-07-31T19:17:27.436Z,100058.95
2023-07-31T19:19:55.377Z,100059.70
2023-07-31T19:22:22.592Z,100061.13
2023-07-31T19:24:49.649Z,100063.17
2023-07-31T19:27:16.994Z,100065.36
2023-07-31T19:29:44.554Z,100067.55
2023-07-31T19:32:13.977Z,100065.48
2023-07-31T19:34:41.723Z,100070.23
2023-07-31T19:37:09.075Z,100068.23
2023-07-31T19:39:36.224Z,100073.77
2023-07-31T19:42:03.887Z,100071.11
2023-07-31T19:44:31.446Z,100069.23
2023-07-31T19:46:58.490Z,100070.77
2023-07-31T19:49:28.313Z,100072.72
2023-07-31T19:51:55.356Z,100073.91
2023-07-31T19:54:22.844Z,100073.88
2023-07-31T19:56:50.881Z,100070.88
2023-07-31T19:59:19.539Z,100070.60
2023-07-31T20:01:46.764Z,100071.38
2023-07-31T20:04:13.765Z,100070.02
2023-07-31T20:06:41.316Z,100069.43
2023-07-31T20:09:08.996Z,100067.64
2023-07-31T20:11:35.954Z,100067.09
2023-07-31T20:14:06.882Z,100065.39
2023-07-31T20:16:39.328Z,100066.21
2023-07-31T20:19:07.643Z,100068.65
2023-07-31T20:21:35.181Z,100071.67
2023-07-31T20:24:02.171Z,100072.21
2023-07-31T20:26:29.286Z,100074.39
2023-07-31T20:28:56.323Z,100074.81
2023-07-31T20:31:23.285Z,100068.06
2023-07-31T20:33:50.726Z,100068.08
2023-07-31T20:36:17.698Z,100061.44
2023-07-31T20:38:44.729Z,100062.52
2023-07-31T20:41:12.512Z,100058.94
2023-07-31T20:43:39.638Z,100057.36
2023-07-31T20:46:06.875Z,100057.58
2023-07-31T20:48:34.656Z,100053.90
2023-07-31T20:51:02.520Z,100054.83
2023-07-31T20:53:30.496Z,100055.48
2023-07-31T20:55:59.071Z,100057.38
2023-07-31T20:58:27.410Z,100055.55
2023-07-31T21:00:54.818Z,100054.13
2023-07-31T21:03:21.830Z,100051.33
2023-07-31T21:05:50.746Z,100050.35
2023-07-31T21:08:17.992Z,100048.07
2023-07-31T21:10:44.941Z,100047.25
2023-07-31T21:13:12.099Z,100045.96
2023-07-31T21:15:42.178Z,100041.23
2023-07-31T21:18:09.369Z,100036.48
2023-07-31T21:20:37.237Z,100036.20
2023-07-31T21:23:08.782Z,100035.30
2023-07-31T21:25:38.792Z,100036.70
2023-07-31T21:28:05.941Z,100038.59
2023-07-31T21:30:34.940Z,100037.57
2023-07-31T21:33:02.155Z,100039.58
2023-07-31T21:35:29.466Z,100035.52
2023-07-31T21:37:56.597Z,100036.52
2023-07-31T21:40:23.653Z,100041.37
2023-07-31T21:42:50.796Z,100041.45
2023-07-31T21:45:18.116Z,100038.27
2023-07-31T21:47:45.217Z,100037.62
2023-07-31T21:50:12.331Z,100039.27
2023-07-31T21:52:40.106Z,100037.84
2023-07-31T21:55:07.868Z,100039.14
2023-07-31T21:57:36.143Z,100038.41
2023-07-31T22:00:04.422Z,100038.88
2023-07-31T22:02:32.826Z,100037.27
2023-07-31T22:04:59.951Z,100035.86
2023-07-31T22:07:27.034Z,100036.19
2023-07-31T22:09:54.252Z,100031.08
2023-07-31T22:12:21.401Z,100028.92
2023-07-31T22:14:48.346Z,100034.19
2023-07-31T22:17:15.335Z,100036.55
2023-07-31T22:19:42.237Z,100036.52
2023-07-31T22:22:09.179Z,100041.16
2023-07-31T22:24:38.293Z,100041.55
2023-07-31T22:27:05.941Z,100045.12
2023-07-31T22:29:32.913Z,100044.90
2023-07-31T22:32:00.140Z,100043.31
2023-07-31T22:34:27.119Z,100044.36
2023-07-31T22:36:54.027Z,100040.77
2023-07-31T22:39:21.084Z,100053.58
2023-07-31T22:41:48.023Z,100044.26
2023-07-31T22:44:15.070Z,100043.14
2023-07-31T22:46:42.476Z,100042.95
2023-07-31T22:49:10.730Z,100045.05
2023-07-31T22:51:37.776Z,100045.33
2023-07-31T22:54:04.901Z,100047.53
2023-07-31T22:56:31.944Z,100044.08
2023-07-31T22:58:59.092Z,100042.15
2023-07-31T23:01:27.924Z,100042.70
2023-07-31T23:03:54.935Z,100040.83
2023-07-31T23:06:22.078Z,100038.29
2023-07-31T23:08:49.039Z,100035.65
2023-07-31T23:11:16.070Z,100031.88
2023-07-31T23:13:43.142Z,100033.98
2023-07-31T23:16:10.085Z,100034.77
2023-07-31T23:18:37.146Z,100030.67
2023-07-31T23:21:04.259Z,100023.73
2023-07-31T23:23:31.755Z,100029.01
2023-07-31T23:25:59.076Z,100024.36
2023-07-31T23:28:26.044Z,100027.59
2023-07-31T23:30:52.975Z,100022.89
2023-07-31T23:33:19.907Z,100025.88
2023-07-31T23:35:47.078Z,100027.48
2023-07-31T23:38:15.646Z,100023.77
2023-07-31T23:40:42.520Z,100023.52
2023-07-31T23:43:09.428Z,100021.75
2023-07-31T23:45:36.603Z,100020.77
2023-07-31T23:48:04.056Z,100014.80
2023-07-31T23:50:32.312Z,100018.92
2023-07-31T23:52:59.376Z,100018.95
2023-07-31T23:55:26.329Z,100021.92
2023-07-31T23:57:53.271Z,100021.21
